Wetterdaten: Samstag, 08.01.2011
Datum Zeit Temp. A. Feuchte A. Luftdruck Regen Wind Richtung Richtung Sonnenschein UV Solar Windben
08.01.2011 00:00 7,3 C 95 % 1005,6 hPa 0,0 mm 1,2 km/h (1 Bft) S 182 0 min 0 UV-I 0 W/m 6,4 km/h (2 Bft)
08.01.2011 00:10 7,3 C 95 % 1005,6 hPa 0,0 mm 0,0 km/h (0 Bft) S-SO 157 0 min 0 UV-I 0 W/m 4,8 km/h (1 Bft)
08.01.2011 00:20 7,3 C 95 % 1005,6 hPa 0,0 mm 0,0 km/h (0 Bft) S 180 0 min 0 UV-I 0 W/m 4,8 km/h (1 Bft)
08.01.2011 00:30 7,2 C 94 % 1005,5 hPa 0,0 mm 0,0 km/h (0 Bft) S 180 0 min 0 UV-I 0 W/m 3,2 km/h (1 Bft)
08.01.2011 00:40 7,1 C 94 % 1005,4 hPa 0,0 mm 0,0 km/h (0 Bft) S 180 0 min 0 UV-I 0 W/m 1,6 km/h (1 Bft)
08.01.2011 00:50 6,8 C 94 % 1005,4 hPa 0,0 mm 0,0 km/h (0 Bft) S 180 0 min 0 UV-I 0 W/m 3,2 km/h (1 Bft)
08.01.2011 01:00 6,7 C 94 % 1005,3 hPa 0,0 mm 1,6 km/h (1 Bft) S-SW 202 0 min 0 UV-I 0 W/m 6,4 km/h (2 Bft)
08.01.2011 01:10 6,7 C 95 % 1005,3 hPa 0,0 mm 0,0 km/h (0 Bft) S 180 0 min 0 UV-I 0 W/m 4,8 km/h (1 Bft)
08.01.2011 01:20 6,8 C 95 % 1005,3 hPa 0,0 mm 0,0 km/h (0 Bft) S-SW 202 0 min 0 UV-I 0 W/m 4,8 km/h (1 Bft)
08.01.2011 01:30 6,9 C 95 % 1005,2 hPa 0,0 mm 0,0 km/h (0 Bft) S-SW 202 0 min 0 UV-I 0 W/m 3,2 km/h (1 Bft)
08.01.2011 01:40 6,9 C 95 % 1005,3 hPa 0,0 mm 0,0 km/h (0 Bft) S-SW 202 0 min 0 UV-I 0 W/m 1,6 km/h (1 Bft)
08.01.2011 01:50 6,9 C 94 % 1005,4 hPa 0,0 mm 0,0 km/h (0 Bft) S-SW 202 0 min 0 UV-I 0 W/m 3,2 km/h (1 Bft)
08.01.2011 02:00 6,8 C 94 % 1005,5 hPa 0,0 mm 0,0 km/h (0 Bft) S-SW 202 0 min 0 UV-I 0 W/m 1,6 km/h (1 Bft)
08.01.2011 02:10 6,6 C 94 % 1005,6 hPa 0,0 mm 0,0 km/h (0 Bft) S-SW 202 0 min 0 UV-I 0 W/m 1,6 km/h (1 Bft)
08.01.2011 02:20 6,4 C 94 % 1005,5 hPa 0,0 mm 0,0 km/h (0 Bft) N 0 0 min 0 UV-I 0 W/m 0,0 km/h (0 Bft)
08.01.2011 02:30 6,1 C 94 % 1005,5 hPa 0,0 mm 0,0 km/h (0 Bft) N 0 0 min 0 UV-I 0 W/m 0,0 km/h (0 Bft)
08.01.2011 02:40 5,9 C 94 % 1005,4 hPa 0,0 mm 0,0 km/h (0 Bft) S-SW 202 0 min 0 UV-I 0 W/m 1,6 km/h (1 Bft)
08.01.2011 02:50 5,7 C 94 % 1005,4 hPa 0,0 mm 0,0 km/h (0 Bft) S-SW 202 0 min 0 UV-I 0 W/m 1,6 km/h (1 Bft)
08.01.2011 03:00 5,6 C 94 % 1005,2 hPa 0,0 mm 0,0 km/h (0 Bft) S-SW 202 0 min 0 UV-I 0 W/m 1,6 km/h (1 Bft)
08.01.2011 03:10 5,6 C 94 % 1005,2 hPa 0,0 mm 0,0 km/h (0 Bft) S-SW 202 0 min 0 UV-I 0 W/m 3,2 km/h (1 Bft)
08.01.2011 03:20 5,6 C 94 % 1005,2 hPa 0,0 mm 0,0 km/h (0 Bft) S-SW 202 0 min 0 UV-I 0 W/m 3,2 km/h (1 Bft)
08.01.2011 03:30 5,6 C 94 % 1005,0 hPa 0,0 mm 0,0 km/h (0 Bft) S-SW 202 0 min 0 UV-I 0 W/m 3,2 km/h (1 Bft)
08.01.2011 03:40 5,6 C 95 % 1005,0 hPa 0,0 mm 0,0 km/h (0 Bft) S-SW 202 0 min 0 UV-I 0 W/m 3,2 km/h (1 Bft)
08.01.2011 03:50 5,6 C 95 % 1004,9 hPa 0,0 mm 0,0 km/h (0 Bft) S-SW 202 0 min 0 UV-I 0 W/m 3,2 km/h (1 Bft)
08.01.2011 04:00 5,7 C 95 % 1005,1 hPa 0,0 mm 0,0 km/h (0 Bft) S-SW 202 0 min 0 UV-I 0 W/m 3,2 km/h (1 Bft)
08.01.2011 04:10 5,8 C 95 % 1004,9 hPa 0,0 mm 0,0 km/h (0 Bft) S 180 0 min 0 UV-I 0 W/m 6,4 km/h (2 Bft)
08.01.2011 04:20 6,0 C 95 % 1004,9 hPa 0,0 mm 0,0 km/h (0 Bft) S 180 0 min 0 UV-I 0 W/m 3,2 km/h (1 Bft)
08.01.2011 04:30 6,1 C 95 % 1004,9 hPa 0,0 mm 1,6 km/h (1 Bft) S 180 0 min 0 UV-I 0 W/m 4,8 km/h (1 Bft)
08.01.2011 04:40 6,2 C 95 % 1004,7 hPa 0,0 mm 1,6 km/h (1 Bft) S 180 0 min 0 UV-I 0 W/m 4,8 km/h (1 Bft)
08.01.2011 04:50 6,3 C 95 % 1004,3 hPa 0,0 mm 1,6 km/h (1 Bft) O-SO 112 0 min 0 UV-I 0 W/m 6,4 km/h (2 Bft)
08.01.2011 05:00 6,3 C 95 % 1004,0 hPa 0,0 mm 3,2 km/h (1 Bft) O-SO 112 0 min 0 UV-I 0 W/m 8,0 km/h (2 Bft)
08.01.2011 05:10 6,4 C 95 % 1003,9 hPa 0,0 mm 1,6 km/h (1 Bft) O-SO 112 0 min 0 UV-I 0 W/m 9,7 km/h (2 Bft)
08.01.2011 05:20 6,6 C 95 % 1003,9 hPa 0,0 mm 1,6 km/h (1 Bft) S 180 0 min 0 UV-I 0 W/m 8,0 km/h (2 Bft)
08.01.2011 05:30 6,8 C 95 % 1003,8 hPa 0,0 mm 3,2 km/h (1 Bft) S-SO 157 0 min 0 UV-I 0 W/m 19,3 km/h (3 Bft)
08.01.2011 05:40 7,0 C 95 % 1003,7 hPa 0,0 mm 3,2 km/h (1 Bft) S 180 0 min 0 UV-I 0 W/m 11,3 km/h (2 Bft)
08.01.2011 05:50 7,2 C 95 % 1003,7 hPa 0,0 mm 3,2 km/h (1 Bft) S 180 0 min 0 UV-I 0 W/m 11,3 km/h (2 Bft)
08.01.2011 06:00 7,3 C 95 % 1003,5 hPa 0,0 mm 3,2 km/h (1 Bft) S 180 0 min 0 UV-I 0 W/m 11,3 km/h (2 Bft)
08.01.2011 06:10 7,4 C 95 % 1003,5 hPa 0,0 mm 1,6 km/h (1 Bft) S 180 0 min 0 UV-I 0 W/m 8,0 km/h (2 Bft)
08.01.2011 06:20 7,5 C 95 % 1003,5 hPa 0,0 mm 1,6 km/h (1 Bft) S 180 0 min 0 UV-I 0 W/m 11,3 km/h (2 Bft)
08.01.2011 06:30 7,6 C 95 % 1003,5 hPa 0,0 mm 1,6 km/h (1 Bft) SO 135 0 min 0 UV-I 0 W/m 9,7 km/h (2 Bft)
08.01.2011 06:40 7,7 C 95 % 1003,6 hPa 0,0 mm 0,0 km/h (0 Bft) S-SO 157 0 min 0 UV-I 0 W/m 4,8 km/h (1 Bft)
08.01.2011 06:50 7,8 C 95 % 1003,5 hPa 0,0 mm 0,0 km/h (0 Bft) SO 135 0 min 0 UV-I 0 W/m 4,8 km/h (1 Bft)
08.01.2011 07:00 7,8 C 95 % 1003,6 hPa 0,0 mm 0,0 km/h (0 Bft) SO 135 0 min 0 UV-I 0 W/m 3,2 km/h (1 Bft)
08.01.2011 07:10 7,8 C 95 % 1003,7 hPa 0,0 mm 0,0 km/h (0 Bft) S-SW 202 0 min 0 UV-I 0 W/m 3,2 km/h (1 Bft)
08.01.2011 07:20 7,7 C 95 % 1003,9 hPa 0,0 mm 1,6 km/h (1 Bft) S-SW 202 0 min 0 UV-I 0 W/m 9,7 km/h (2 Bft)
08.01.2011 07:30 7,9 C 95 % 1003,8 hPa 0,0 mm 3,2 km/h (1 Bft) SW 225 0 min 0 UV-I 0 W/m 12,9 km/h (3 Bft)
08.01.2011 07:40 8,2 C 95 % 1004,1 hPa 0,0 mm 1,6 km/h (1 Bft) SW 225 0 min 0 UV-I 0 W/m 6,4 km/h (2 Bft)
08.01.2011 07:50 8,4 C 95 % 1004,4 hPa 0,0 mm 3,2 km/h (1 Bft) S-SW 202 0 min 0 UV-I 0 W/m 9,7 km/h (2 Bft)
08.01.2011 08:00 8,6 C 95 % 1004,4 hPa 0,0 mm 0,4 km/h (0 Bft) S-SW 213 0 min 0 UV-I 0 W/m 3,2 km/h (1 Bft)
08.01.2011 08:10 8,7 C 95 % 1004,5 hPa 0,0 mm 1,6 km/h (1 Bft) SW 225 0 min 0 UV-I 0 W/m 9,7 km/h (2 Bft)
08.01.2011 08:20 8,7 C 95 % 1004,9 hPa 0,3 mm 1,6 km/h (1 Bft) SW 225 0 min 0 UV-I 0 W/m 8,0 km/h (2 Bft)
08.01.2011 08:30 8,8 C 95 % 1005,0 hPa 1,0 mm 1,6 km/h (1 Bft) SW 225 0 min 0 UV-I 0 W/m 9,7 km/h (2 Bft)
08.01.2011 08:40 8,9 C 95 % 1004,5 hPa 1,0 mm 1,6 km/h (1 Bft) S-SW 202 0 min 0 UV-I 0 W/m 8,0 km/h (2 Bft)
08.01.2011 08:50 9,1 C 99 % 1004,7 hPa 0,0 mm 1,6 km/h (1 Bft) S-SW 202 0 min 0 UV-I 0 W/m 4,8 km/h (1 Bft)
08.01.2011 09:00 9,1 C 95 % 1004,4 hPa 0,0 mm 1,6 km/h (1 Bft) S-SO 157 0 min 0 UV-I 0 W/m 9,7 km/h (2 Bft)
08.01.2011 09:10 9,1 C 95 % 1004,0 hPa 0,0 mm 1,6 km/h (1 Bft) O-SO 112 0 min 0 UV-I 0 W/m 8,0 km/h (2 Bft)
08.01.2011 09:20 9,1 C 95 % 1004,1 hPa 0,0 mm 3,2 km/h (1 Bft) S-SO 157 0 min 0 UV-I 12 W/m 11,3 km/h (2 Bft)
08.01.2011 09:30 8,9 C 95 % 1004,3 hPa 0,0 mm 3,2 km/h (1 Bft) S-SW 202 0 min 0 UV-I 53 W/m 16,1 km/h (3 Bft)
08.01.2011 09:40 8,9 C 95 % 1004,2 hPa 0,0 mm 3,2 km/h (1 Bft) S 180 10 min 0 UV-I 86 W/m 11,3 km/h (2 Bft)
08.01.2011 09:50 9,1 C 95 % 1003,9 hPa 0,0 mm 3,2 km/h (1 Bft) S 180 10 min 0 UV-I 114 W/m 14,5 km/h (3 Bft)
08.01.2011 10:00 9,2 C 95 % 1003,8 hPa 0,0 mm 3,2 km/h (1 Bft) S 180 0 min 0 UV-I 63 W/m 14,5 km/h (3 Bft)
08.01.2011 10:10 9,2 C 95 % 1003,8 hPa 0,0 mm 4,8 km/h (1 Bft) SO 135 10 min 0 UV-I 135 W/m 14,5 km/h (3 Bft)
08.01.2011 10:20 9,0 C 95 % 1003,5 hPa 0,0 mm 3,2 km/h (1 Bft) S 180 10 min 1 UV-I 171 W/m 14,5 km/h (3 Bft)
08.01.2011 10:30 9,1 C 95 % 1003,5 hPa 0,0 mm 3,2 km/h (1 Bft) SO 135 10 min 1 UV-I 146 W/m 16,1 km/h (3 Bft)
08.01.2011 10:40 9,1 C 95 % 1003,7 hPa 0,0 mm 3,2 km/h (1 Bft) S-SO 157 0 min 0 UV-I 49 W/m 17,7 km/h (3 Bft)
08.01.2011 10:50 9,1 C 94 % 1003,1 hPa 0,0 mm 3,2 km/h (1 Bft) S-SO 157 0 min 1 UV-I 104 W/m 17,7 km/h (3 Bft)
08.01.2011 11:00 9,2 C 94 % 1003,0 hPa 0,0 mm 4,8 km/h (1 Bft) S-SO 157 0 min 1 UV-I 104 W/m 19,3 km/h (3 Bft)
08.01.2011 11:10 9,3 C 95 % 1002,8 hPa 0,0 mm 4,8 km/h (1 Bft) S 180 0 min 1 UV-I 97 W/m 16,1 km/h (3 Bft)
08.01.2011 11:20 9,7 C 95 % 1002,8 hPa 0,0 mm 6,4 km/h (2 Bft) S-SO 157 0 min 1 UV-I 134 W/m 20,9 km/h (4 Bft)
08.01.2011 11:30 9,9 C 94 % 1002,5 hPa 0,0 mm 6,4 km/h (2 Bft) SO 135 10 min 1 UV-I 160 W/m 20,9 km/h (4 Bft)
08.01.2011 11:40 10,3 C 93 % 1002,4 hPa 0,0 mm 4,8 km/h (1 Bft) SO 135 10 min 1 UV-I 169 W/m 14,5 km/h (3 Bft)
08.01.2011 11:50 10,7 C 91 % 1002,6 hPa 0,0 mm 8,0 km/h (2 Bft) S-SO 157 0 min 1 UV-I 121 W/m 27,4 km/h (4 Bft)
08.01.2011 12:00 11,1 C 87 % 1002,5 hPa 0,0 mm 4,8 km/h (1 Bft) S 171 0 min 1 UV-I 146 W/m 20,9 km/h (4 Bft)
08.01.2011 12:10 11,6 C 85 % 1002,4 hPa 0,0 mm 4,5 km/h (1 Bft) S-SO 157 0 min 1 UV-I 150 W/m 14,5 km/h (3 Bft)
08.01.2011 12:20 12,4 C 76 % 1002,2 hPa 0,0 mm 7,0 km/h (2 Bft) S-SW 203 0 min 1 UV-I 129 W/m 22,5 km/h (4 Bft)
08.01.2011 12:30 12,9 C 71 % 1002,2 hPa 0,0 mm 10,3 km/h (2 Bft) S 182 10 min 1 UV-I 163 W/m 40,2 km/h (6 Bft)
08.01.2011 12:40 13,1 C 70 % 1002,1 hPa 0,0 mm 9,2 km/h (2 Bft) SW 225 0 min 1 UV-I 140 W/m 24,1 km/h (4 Bft)
08.01.2011 12:50 13,1 C 69 % 1002,0 hPa 0,0 mm 10,6 km/h (2 Bft) W 261 0 min 1 UV-I 124 W/m 25,7 km/h (4 Bft)
08.01.2011 13:00 13,3 C 68 % 1002,2 hPa 0,0 mm 9,7 km/h (2 Bft) W 277 10 min 1 UV-I 254 W/m 25,7 km/h (4 Bft)
08.01.2011 13:10 13,4 C 68 % 1002,0 hPa 0,0 mm 11,1 km/h (2 Bft) N 9 10 min 1 UV-I 234 W/m 29,0 km/h (5 Bft)
08.01.2011 13:20 13,8 C 66 % 1001,8 hPa 0,0 mm 11,6 km/h (2 Bft) W 260 10 min 1 UV-I 349 W/m 29,0 km/h (5 Bft)
08.01.2011 13:30 13,7 C 67 % 1001,7 hPa 0,0 mm 11,4 km/h (2 Bft) S 188 10 min 1 UV-I 261 W/m 25,7 km/h (4 Bft)
08.01.2011 13:40 13,8 C 67 % 1001,6 hPa 0,0 mm 9,4 km/h (2 Bft) W 263 10 min 1 UV-I 366 W/m 29,0 km/h (5 Bft)
08.01.2011 13:50 13,5 C 67 % 1001,8 hPa 0,0 mm 10,6 km/h (2 Bft) S-SW 209 0 min 1 UV-I 131 W/m 24,1 km/h (4 Bft)
08.01.2011 14:00 13,4 C 68 % 1001,7 hPa 0,0 mm 10,0 km/h (2 Bft) S-SW 205 10 min 0 UV-I 170 W/m 25,7 km/h (4 Bft)
08.01.2011 14:10 13,2 C 69 % 1001,7 hPa 0,0 mm 9,0 km/h (2 Bft) S 171 0 min 0 UV-I 71 W/m 27,4 km/h (4 Bft)
08.01.2011 14:20 12,9 C 70 % 1001,9 hPa 0,0 mm 5,3 km/h (1 Bft) W-NW 298 0 min 0 UV-I 32 W/m 17,7 km/h (3 Bft)
08.01.2011 14:30 12,8 C 71 % 1001,8 hPa 0,0 mm 6,7 km/h (2 Bft) S-SW 194 0 min 0 UV-I 50 W/m 27,4 km/h (4 Bft)
08.01.2011 14:40 12,8 C 71 % 1001,8 hPa 0,0 mm 6,0 km/h (2 Bft) W-SW 248 0 min 0 UV-I 44 W/m 17,7 km/h (3 Bft)
08.01.2011 14:50 12,8 C 70 % 1001,8 hPa 0,0 mm 9,8 km/h (2 Bft) W-SW 246 0 min 0 UV-I 44 W/m 25,7 km/h (4 Bft)
08.01.2011 15:00 13,0 C 70 % 1001,8 hPa 0,0 mm 6,7 km/h (2 Bft) SW 219 10 min 0 UV-I 101 W/m 19,3 km/h (3 Bft)
08.01.2011 15:10 13,0 C 69 % 1001,8 hPa 0,0 mm 5,7 km/h (1 Bft) S 184 0 min 0 UV-I 46 W/m 20,9 km/h (4 Bft)
08.01.2011 15:20 12,9 C 69 % 1001,9 hPa 0,0 mm 6,4 km/h (2 Bft) S-SW 211 0 min 0 UV-I 19 W/m 22,5 km/h (4 Bft)
08.01.2011 15:30 12,8 C 70 % 1001,9 hPa 0,0 mm 5,8 km/h (2 Bft) S-SW 207 0 min 0 UV-I 28 W/m 17,7 km/h (3 Bft)
08.01.2011 15:40 12,7 C 71 % 1002,1 hPa 0,0 mm 6,0 km/h (2 Bft) W 265 0 min 0 UV-I 17 W/m 17,7 km/h (3 Bft)
08.01.2011 15:50 12,5 C 71 % 1002,1 hPa 0,0 mm 6,4 km/h (2 Bft) SW 219 0 min 0 UV-I 18 W/m 19,3 km/h (3 Bft)
08.01.2011 16:00 12,4 C 71 % 1002,3 hPa 0,0 mm 6,2 km/h (2 Bft) SW 221 0 min 0 UV-I 19 W/m 19,3 km/h (3 Bft)
08.01.2011 16:10 12,3 C 72 % 1002,3 hPa 0,0 mm 4,2 km/h (1 Bft) SW 226 0 min 0 UV-I 11 W/m 22,5 km/h (4 Bft)
08.01.2011 16:20 12,2 C 72 % 1002,3 hPa 0,0 mm 5,9 km/h (2 Bft) S-SW 202 0 min 0 UV-I 0 W/m 19,3 km/h (3 Bft)
08.01.2011 16:30 12,2 C 72 % 1002,4 hPa 0,0 mm 6,7 km/h (2 Bft) S-SW 197 0 min 0 UV-I 0 W/m 22,5 km/h (4 Bft)
08.01.2011 16:40 12,1 C 72 % 1002,6 hPa 0,0 mm 4,6 km/h (1 Bft) S-SW 209 0 min 0 UV-I 0 W/m 14,5 km/h (3 Bft)
08.01.2011 16:50 11,9 C 72 % 1002,6 hPa 0,0 mm 7,0 km/h (2 Bft) S-SW 199 0 min 0 UV-I 0 W/m 20,9 km/h (4 Bft)
08.01.2011 17:00 11,9 C 72 % 1002,6 hPa 0,0 mm 5,4 km/h (1 Bft) SW 226 0 min 0 UV-I 0 W/m 22,5 km/h (4 Bft)
08.01.2011 17:10 11,9 C 72 % 1002,6 hPa 0,0 mm 4,0 km/h (1 Bft) S 186 0 min 0 UV-I 0 W/m 16,1 km/h (3 Bft)
08.01.2011 17:20 11,8 C 72 % 1002,7 hPa 0,0 mm 5,3 km/h (1 Bft) S-SW 197 0 min 0 UV-I 0 W/m 16,1 km/h (3 Bft)
08.01.2011 17:30 11,8 C 72 % 1002,8 hPa 0,0 mm 4,8 km/h (1 Bft) S-SW 192 0 min 0 UV-I 0 W/m 17,7 km/h (3 Bft)
08.01.2011 17:40 11,8 C 72 % 1002,9 hPa 0,0 mm 4,6 km/h (1 Bft) S 190 0 min 0 UV-I 0 W/m 17,7 km/h (3 Bft)
08.01.2011 17:50 11,7 C 72 % 1002,9 hPa 0,0 mm 5,0 km/h (1 Bft) W-SW 252 0 min 0 UV-I 0 W/m 22,5 km/h (4 Bft)
08.01.2011 18:00 11,6 C 72 % 1003,0 hPa 0,0 mm 5,1 km/h (1 Bft) S-SW 204 0 min 0 UV-I 0 W/m 19,3 km/h (3 Bft)
08.01.2011 18:10 11,5 C 72 % 1002,9 hPa 0,0 mm 6,4 km/h (2 Bft) S-SW 202 0 min 0 UV-I 0 W/m 19,3 km/h (3 Bft)
08.01.2011 18:20 11,4 C 72 % 1003,1 hPa 0,0 mm 6,4 km/h (2 Bft) W-SW 247 0 min 0 UV-I 0 W/m 19,3 km/h (3 Bft)
08.01.2011 18:30 11,4 C 72 % 1003,1 hPa 0,0 mm 4,8 km/h (1 Bft) SW 225 0 min 0 UV-I 0 W/m 19,3 km/h (3 Bft)
08.01.2011 18:40 11,3 C 72 % 1003,1 hPa 0,0 mm 4,8 km/h (1 Bft) S-SW 202 0 min 0 UV-I 0 W/m 17,7 km/h (3 Bft)
08.01.2011 18:50 11,3 C 72 % 1003,3 hPa 0,0 mm 4,8 km/h (1 Bft) SW 225 0 min 0 UV-I 0 W/m 17,7 km/h (3 Bft)
08.01.2011 19:00 11,3 C 73 % 1003,5 hPa 0,0 mm 4,8 km/h (1 Bft) SW 225 0 min 0 UV-I 0 W/m 14,5 km/h (3 Bft)
08.01.2011 19:10 11,2 C 73 % 1003,5 hPa 0,0 mm 4,8 km/h (1 Bft) SW 225 0 min 0 UV-I 0 W/m 11,3 km/h (2 Bft)
08.01.2011 19:20 11,2 C 73 % 1003,5 hPa 0,0 mm 6,4 km/h (2 Bft) SW 225 0 min 0 UV-I 0 W/m 16,1 km/h (3 Bft)
08.01.2011 19:30 11,3 C 73 % 1003,6 hPa 0,0 mm 8,0 km/h (2 Bft) S-SW 202 0 min 0 UV-I 0 W/m 22,5 km/h (4 Bft)
08.01.2011 19:40 11,4 C 73 % 1003,7 hPa 0,0 mm 9,7 km/h (2 Bft) SW 225 0 min 0 UV-I 0 W/m 25,7 km/h (4 Bft)
08.01.2011 19:50 11,5 C 73 % 1003,6 hPa 0,0 mm 6,4 km/h (2 Bft) SW 225 0 min 0 UV-I 0 W/m 20,9 km/h (4 Bft)
08.01.2011 20:00 11,5 C 73 % 1003,7 hPa 0,0 mm 4,8 km/h (1 Bft) SW 225 0 min 0 UV-I 0 W/m 14,5 km/h (3 Bft)
08.01.2011 20:10 11,4 C 73 % 1003,7 hPa 0,0 mm 3,2 km/h (1 Bft) SW 225 0 min 0 UV-I 0 W/m 11,3 km/h (2 Bft)
08.01.2011 20:20 11,3 C 74 % 1003,8 hPa 0,0 mm 3,2 km/h (1 Bft) SW 225 0 min 0 UV-I 0 W/m 14,5 km/h (3 Bft)
08.01.2011 20:30 11,2 C 74 % 1003,9 hPa 0,0 mm 4,8 km/h (1 Bft) SW 225 0 min 0 UV-I 0 W/m 17,7 km/h (3 Bft)
08.01.2011 20:40 11,1 C 74 % 1003,9 hPa 0,0 mm 4,8 km/h (1 Bft) SW 225 0 min 0 UV-I 0 W/m 17,7 km/h (3 Bft)
08.01.2011 20:50 11,1 C 74 % 1003,9 hPa 0,0 mm 6,4 km/h (2 Bft) SW 225 0 min 0 UV-I 0 W/m 17,7 km/h (3 Bft)
08.01.2011 21:00 11,2 C 74 % 1004,0 hPa 0,0 mm 3,2 km/h (1 Bft) W-SW 247 0 min 0 UV-I 0 W/m 11,3 km/h (2 Bft)
08.01.2011 21:10 11,2 C 74 % 1003,9 hPa 0,0 mm 4,8 km/h (1 Bft) W-SW 247 0 min 0 UV-I 0 W/m 16,1 km/h (3 Bft)
08.01.2011 21:20 11,2 C 74 % 1004,1 hPa 0,0 mm 3,2 km/h (1 Bft) W-SW 247 0 min 0 UV-I 0 W/m 9,7 km/h (2 Bft)
08.01.2011 21:30 11,1 C 75 % 1004,3 hPa 0,0 mm 1,6 km/h (1 Bft) W-SW 247 0 min 0 UV-I 0 W/m 4,8 km/h (1 Bft)
08.01.2011 21:40 11,0 C 76 % 1004,3 hPa 0,0 mm 3,2 km/h (1 Bft) W-NW 292 0 min 0 UV-I 0 W/m 14,5 km/h (3 Bft)
08.01.2011 21:50 10,8 C 78 % 1004,5 hPa 0,0 mm 1,6 km/h (1 Bft) W 270 0 min 0 UV-I 0 W/m 8,0 km/h (2 Bft)
08.01.2011 22:00 10,6 C 80 % 1004,8 hPa 0,0 mm 0,0 km/h (0 Bft) W-NW 292 0 min 0 UV-I 0 W/m 4,8 km/h (1 Bft)
08.01.2011 22:10 10,3 C 81 % 1004,8 hPa 0,0 mm 1,6 km/h (1 Bft) W 270 0 min 0 UV-I 0 W/m 8,0 km/h (2 Bft)
08.01.2011 22:20 10,1 C 82 % 1004,8 hPa 0,0 mm 3,2 km/h (1 Bft) W 270 0 min 0 UV-I 0 W/m 9,7 km/h (2 Bft)
08.01.2011 22:30 9,8 C 84 % 1004,8 hPa 0,3 mm 3,2 km/h (1 Bft) W-SW 247 0 min 0 UV-I 0 W/m 8,0 km/h (2 Bft)
08.01.2011 22:40 9,6 C 85 % 1004,7 hPa 0,0 mm 1,6 km/h (1 Bft) W-SW 247 0 min 0 UV-I 0 W/m 6,4 km/h (2 Bft)
08.01.2011 22:50 9,5 C 85 % 1004,7 hPa 0,0 mm 1,6 km/h (1 Bft) SW 225 0 min 0 UV-I 0 W/m 6,4 km/h (2 Bft)
08.01.2011 23:00 9,3 C 86 % 1004,6 hPa 0,0 mm 0,0 km/h (0 Bft) S-SW 202 0 min 0 UV-I 0 W/m 4,8 km/h (1 Bft)
08.01.2011 23:10 9,2 C 86 % 1004,5 hPa 0,0 mm 0,0 km/h (0 Bft) N 0 0 min 0 UV-I 0 W/m 0,0 km/h (0 Bft)
08.01.2011 23:20 9,1 C 87 % 1004,4 hPa 0,0 mm 0,0 km/h (0 Bft) N 0 0 min 0 UV-I 0 W/m 0,0 km/h (0 Bft)
08.01.2011 23:30 9,1 C 87 % 1004,4 hPa 0,0 mm 0,0 km/h (0 Bft) S-SW 202 0 min 0 UV-I 0 W/m 1,6 km/h (1 Bft)
08.01.2011 23:40 8,9 C 87 % 1004,3 hPa 0,0 mm 0,0 km/h (0 Bft) S-SW 202 0 min 0 UV-I 0 W/m 1,6 km/h (1 Bft)
08.01.2011 23:50 8,8 C 87 % 1004,3 hPa 0,3 mm 0,0 km/h (0 Bft) S-SW 202 0 min 0 UV-I 0 W/m 1,6 km/h (1 Bft)
_ Min-Zeit 03:20 13:20 13:40 - 00:10 - - - - - 02:20
Minimum _ 5,5 C 66 % 1001,6 hPa - 0,0 km/h (0 Bft) - - - - - 0,0 km/h (0 Bft)
_ Max-Zeit 13:20 08:50 00:00 08:30 13:20 - - 09:40 13:00 13:40 12:30
Maximum _ 13,8 C 99 % 1005,6 hPa 1,0 mm 11,6 km/h
W (2 Bft)
- - 10 min 1 UV-I 366 W/m 40,2 km/h
S-SW (6 Bft)
Durchschnitt _ 9,6 C 84 % 1003,7 hPa #2,8 mm 3,5 km/h (1 Bft) SW - #2:30 h 1 UV-I 115 W/m 12,7 km/h (3 Bft)